Apex, North Carolina
Current Conditions -  °F | °C
As of 2:51 PM on Thursday 23 Oct 2014 (Local Time) from KRDU Reporting Station
Clear Clear  
Wind Chill: 68°   Ceiling: Unl
Heat Index: 68°   Visibility: 10mi
Dew Point: 43°   Wind: 6mph
Humidity: 40%   Direction: 290°WNW
Pressure: 29.93"   Gusts: 21mph
Location:  35.73°N, 78.84°W
Report Text: KRDU 231851Z 29005G18KT 10SM CLR 20/06 A2993 RMK AO2 SLP134 T02000061
Loading
Personal Weather Stations






























Interactive Weather Map
Tropical Storm Tracking
New forecast layout! Learn more

10-Day Weather Forecast

Advertisements
Track Severe Weather on mobile